createdAt,value
2022-11-29T00:00:07.166Z,3.00
2022-11-29T00:02:17.768Z,3.00
2022-11-29T00:04:22.309Z,3.00
2022-11-29T00:06:28.455Z,3.00
2022-11-29T00:08:32.864Z,2.90
2022-11-29T00:10:38.254Z,3.10
2022-11-29T00:12:43.019Z,3.00
2022-11-29T00:14:47.406Z,3.00
2022-11-29T00:16:53.955Z,3.00
2022-11-29T00:18:58.602Z,3.00
2022-11-29T00:21:07.605Z,3.00
2022-11-29T00:23:11.994Z,3.00
2022-11-29T00:25:26.531Z,3.00
2022-11-29T00:27:30.820Z,3.00
2022-11-29T00:29:36.865Z,3.10
2022-11-29T00:31:42.419Z,3.10
2022-11-29T00:33:47.267Z,3.10
2022-11-29T00:35:51.612Z,3.00
2022-11-29T00:37:55.808Z,3.00
2022-11-29T00:40:00.184Z,3.00
2022-11-29T00:42:05.014Z,3.00
2022-11-29T00:44:11.936Z,3.00
2022-11-29T00:46:21.292Z,3.00
2022-11-29T00:48:26.136Z,3.00
2022-11-29T00:50:30.398Z,3.00
2022-11-29T00:52:34.628Z,3.00
2022-11-29T00:54:38.825Z,3.00
2022-11-29T00:56:43.447Z,3.00
2022-11-29T00:58:48.849Z,3.00
2022-11-29T01:00:54.639Z,2.90
2022-11-29T01:03:00.489Z,3.00
2022-11-29T01:05:04.913Z,3.00
2022-11-29T01:07:09.485Z,3.00
2022-11-29T01:09:13.846Z,3.00
2022-11-29T01:11:20.746Z,3.00
2022-11-29T01:13:25.860Z,3.00
2022-11-29T01:15:31.374Z,3.00
2022-11-29T01:17:36.992Z,3.00
2022-11-29T01:19:47.850Z,3.00
2022-11-29T01:21:54.813Z,3.00
2022-11-29T01:23:59.410Z,3.10
2022-11-29T01:26:06.171Z,3.10
2022-11-29T01:28:10.498Z,3.00
2022-11-29T01:30:15.190Z,3.00
2022-11-29T01:32:19.430Z,3.00
2022-11-29T01:34:23.745Z,3.00
2022-11-29T01:36:30.224Z,3.00
2022-11-29T01:38:35.153Z,2.90
2022-11-29T01:40:39.501Z,2.90
2022-11-29T01:42:43.846Z,3.00
2022-11-29T01:45:08.027Z,3.00
2022-11-29T01:47:13.756Z,3.00
2022-11-29T01:49:22.985Z,2.90
2022-11-29T01:51:30.469Z,2.90
2022-11-29T01:53:35.096Z,2.90
2022-11-29T01:55:42.143Z,2.90
2022-11-29T01:57:47.431Z,2.90
2022-11-29T01:59:55.023Z,3.00
2022-11-29T02:02:04.085Z,3.00
2022-11-29T02:04:09.382Z,3.10
2022-11-29T02:06:14.106Z,3.10
2022-11-29T02:08:24.887Z,3.00
2022-11-29T02:10:39.923Z,3.00
2022-11-29T02:12:56.130Z,2.90
2022-11-29T02:15:14.768Z,2.90
2022-11-29T02:17:31.265Z,2.90
2022-11-29T02:20:32.222Z,2.90
2022-11-29T02:22:42.906Z,2.90
2022-11-29T02:25:01.953Z,2.80
2022-11-29T02:27:36.683Z,2.80
2022-11-29T02:30:14.881Z,2.80
2022-11-29T02:33:01.937Z,2.80
2022-11-29T02:35:20.867Z,2.80
2022-11-29T02:38:00.581Z,2.90
2022-11-29T02:40:33.754Z,2.90
2022-11-29T02:43:00.516Z,2.90
2022-11-29T02:45:11.978Z,3.00
2022-11-29T02:47:27.092Z,3.00
2022-11-29T02:49:54.887Z,3.00
2022-11-29T02:52:03.300Z,3.00
2022-11-29T02:54:12.938Z,3.00
2022-11-29T02:56:24.703Z,3.00
2022-11-29T02:58:36.977Z,3.00
2022-11-29T03:00:50.672Z,3.00
2022-11-29T03:03:01.042Z,3.00
2022-11-29T03:05:18.801Z,3.00
2022-11-29T03:07:32.339Z,3.00
2022-11-29T03:09:43.601Z,3.00
2022-11-29T03:11:57.178Z,3.10
2022-11-29T03:14:14.580Z,3.10
2022-11-29T03:16:30.046Z,3.10
2022-11-29T03:18:46.647Z,3.10
2022-11-29T03:21:08.905Z,3.10
2022-11-29T03:23:23.591Z,3.10
2022-11-29T03:25:34.431Z,3.20
2022-11-29T03:27:43.670Z,3.20
2022-11-29T03:29:51.945Z,3.20
2022-11-29T03:32:02.875Z,3.10
2022-11-29T03:34:18.557Z,3.10
2022-11-29T03:36:32.821Z,3.20
2022-11-29T03:38:41.616Z,3.20
2022-11-29T03:40:53.595Z,3.30
2022-11-29T03:43:03.388Z,3.20
2022-11-29T03:45:15.062Z,3.20
2022-11-29T03:47:25.300Z,3.20
2022-11-29T03:49:35.023Z,3.20
2022-11-29T03:52:02.074Z,3.10
2022-11-29T03:54:12.329Z,3.20
2022-11-29T03:56:31.478Z,3.20
2022-11-29T03:58:49.958Z,3.20
2022-11-29T04:01:26.766Z,3.30
2022-11-29T04:04:03.833Z,3.20
2022-11-29T04:06:28.509Z,3.30
2022-11-29T04:08:59.554Z,3.20
2022-11-29T04:11:33.527Z,3.30
2022-11-29T04:14:11.370Z,3.20
2022-11-29T04:16:45.807Z,3.20
2022-11-29T04:19:21.450Z,3.20
2022-11-29T04:21:51.507Z,3.20
2022-11-29T04:24:10.265Z,3.20
2022-11-29T04:26:45.973Z,3.20
2022-11-29T04:29:14.170Z,3.20
2022-11-29T04:31:29.867Z,3.30
2022-11-29T04:33:59.301Z,3.20
2022-11-29T04:36:33.512Z,3.20
2022-11-29T04:39:14.156Z,3.20
2022-11-29T04:41:54.050Z,3.30
2022-11-29T04:44:11.846Z,3.20
2022-11-29T04:46:39.772Z,3.30
2022-11-29T04:49:08.128Z,3.30
2022-11-29T04:51:22.954Z,3.30
2022-11-29T04:53:44.980Z,3.30
2022-11-29T04:55:58.129Z,3.30
2022-11-29T04:58:13.092Z,3.30
2022-11-29T05:00:22.794Z,3.30
2022-11-29T05:02:34.736Z,3.20
2022-11-29T05:04:48.862Z,3.30
2022-11-29T05:07:04.380Z,3.30
2022-11-29T05:09:16.819Z,3.30
2022-11-29T05:11:31.032Z,3.30
2022-11-29T05:13:44.359Z,3.30
2022-11-29T05:16:28.697Z,3.40
2022-11-29T05:18:59.883Z,3.40
2022-11-29T05:21:12.732Z,3.30
2022-11-29T05:23:38.055Z,3.30
2022-11-29T05:25:50.570Z,3.40
2022-11-29T05:28:05.709Z,3.40
2022-11-29T05:30:17.376Z,3.30
2022-11-29T05:32:32.814Z,3.40
2022-11-29T05:34:56.435Z,3.30
2022-11-29T05:37:09.675Z,3.30
2022-11-29T05:39:34.062Z,3.30
2022-11-29T05:41:53.024Z,3.30
2022-11-29T05:44:06.174Z,3.30
2022-11-29T05:46:18.651Z,3.30
2022-11-29T05:48:29.960Z,3.30
2022-11-29T05:50:41.655Z,3.20
2022-11-29T05:52:50.918Z,3.20
2022-11-29T05:55:07.169Z,3.30
2022-11-29T05:57:20.213Z,3.20
2022-11-29T05:59:28.760Z,3.30
2022-11-29T06:01:46.048Z,3.30
2022-11-29T06:03:59.585Z,3.30
2022-11-29T06:06:11.382Z,3.30
2022-11-29T06:08:21.607Z,3.30
2022-11-29T06:10:29.890Z,3.30
2022-11-29T06:12:37.702Z,3.20
2022-11-29T06:14:57.420Z,3.30
2022-11-29T06:17:38.587Z,3.30
2022-11-29T06:20:00.483Z,3.30
2022-11-29T06:22:18.017Z,3.40
2022-11-29T06:24:37.385Z,3.40
2022-11-29T06:27:02.398Z,3.50
2022-11-29T06:29:25.325Z,3.40
2022-11-29T06:31:33.854Z,3.40
2022-11-29T06:33:46.876Z,3.40
2022-11-29T06:36:01.012Z,3.50
2022-11-29T06:38:13.392Z,3.50
2022-11-29T06:40:18.487Z,3.60
2022-11-29T06:42:23.006Z,3.60
2022-11-29T06:44:29.268Z,3.50
2022-11-29T06:46:45.933Z,3.60
2022-11-29T06:49:02.088Z,3.70
2022-11-29T06:51:12.481Z,3.70
2022-11-29T06:53:20.425Z,3.60
2022-11-29T06:55:34.976Z,3.50
2022-11-29T06:57:56.145Z,3.50
2022-11-29T07:00:11.707Z,3.50
2022-11-29T07:02:30.054Z,3.60
2022-11-29T07:04:52.612Z,3.60
2022-11-29T07:06:57.594Z,3.60
2022-11-29T07:09:05.647Z,3.60
2022-11-29T07:11:14.788Z,3.70
2022-11-29T07:13:21.229Z,3.80
2022-11-29T07:15:28.238Z,3.80
2022-11-29T07:17:40.757Z,3.80
2022-11-29T07:19:57.011Z,3.90
2022-11-29T07:22:14.748Z,3.80
2022-11-29T07:24:32.056Z,3.70
2022-11-29T07:26:48.192Z,3.80
2022-11-29T07:29:15.240Z,3.80
2022-11-29T07:31:29.896Z,3.70
2022-11-29T07:33:43.428Z,3.70
2022-11-29T07:35:57.012Z,3.80
2022-11-29T07:38:12.239Z,3.70
2022-11-29T07:40:21.032Z,3.70
2022-11-29T07:42:32.287Z,3.80
2022-11-29T07:44:46.565Z,3.80
2022-11-29T07:46:51.755Z,3.90
2022-11-29T07:48:56.243Z,3.90
2022-11-29T07:51:03.517Z,4.00
2022-11-29T07:53:07.784Z,4.00
2022-11-29T07:55:18.739Z,4.00
2022-11-29T07:57:23.630Z,4.00
2022-11-29T07:59:29.227Z,3.90
2022-11-29T08:01:33.902Z,3.90
2022-11-29T08:03:38.160Z,3.80
2022-11-29T08:05:46.431Z,3.90
2022-11-29T08:07:52.270Z,4.10
2022-11-29T08:09:58.199Z,4.00
2022-11-29T08:12:02.844Z,3.90
2022-11-29T08:14:07.395Z,4.00
2022-11-29T08:16:17.823Z,4.10
2022-11-29T08:18:22.824Z,4.10
2022-11-29T08:20:27.129Z,4.10
2022-11-29T08:22:32.074Z,4.20
2022-11-29T08:24:37.762Z,4.20
2022-11-29T08:26:42.155Z,4.30
2022-11-29T08:28:46.417Z,4.30
2022-11-29T08:30:50.812Z,4.40
2022-11-29T08:32:56.682Z,4.50
2022-11-29T08:35:02.009Z,4.60
2022-11-29T08:37:09.250Z,4.70
2022-11-29T08:39:13.734Z,4.70
2022-11-29T08:41:20.075Z,4.80
2022-11-29T08:43:24.924Z,4.70
2022-11-29T08:45:30.810Z,4.80
2022-11-29T08:47:38.615Z,4.80
2022-11-29T08:49:56.829Z,4.80
2022-11-29T08:52:14.961Z,4.80
2022-11-29T08:54:19.575Z,4.90
2022-11-29T08:57:16.598Z,4.90
2022-11-29T09:40:24.206Z,5.40
2022-11-29T09:49:01.531Z,5.60
2022-11-29T09:52:17.020Z,5.60
2022-11-29T09:54:38.432Z,5.60
2022-11-29T09:56:48.793Z,5.60
2022-11-29T09:59:00.676Z,5.60
2022-11-29T10:01:10.980Z,5.50
2022-11-29T10:03:23.394Z,5.60
2022-11-29T10:05:35.495Z,5.50
2022-11-29T10:07:53.325Z,5.60
2022-11-29T10:10:08.559Z,5.60
2022-11-29T10:12:18.448Z,5.60
2022-11-29T10:14:28.493Z,5.70
2022-11-29T10:16:37.809Z,5.60
2022-11-29T10:18:47.605Z,5.60
2022-11-29T10:20:55.004Z,5.60
2022-11-29T10:23:04.493Z,5.60
2022-11-29T10:25:11.127Z,5.70
2022-11-29T10:27:19.756Z,5.70
2022-11-29T10:29:25.943Z,5.70
2022-11-29T10:31:34.282Z,5.70
2022-11-29T10:33:42.485Z,5.70
2022-11-29T10:35:47.372Z,5.70
2022-11-29T10:38:29.221Z,5.60
2022-11-29T10:40:24.135Z,5.60
2022-11-29T10:42:47.880Z,5.60
2022-11-29T10:44:54.065Z,5.70
2022-11-29T10:46:59.648Z,5.70
2022-11-29T10:49:07.776Z,5.70
2022-11-29T10:51:18.886Z,5.70
2022-11-29T10:53:27.807Z,5.70
2022-11-29T10:55:40.058Z,5.70
2022-11-29T10:58:28.386Z,5.70
2022-11-29T11:00:49.181Z,5.70
2022-11-29T11:02:54.061Z,5.70
2022-11-29T11:04:59.949Z,5.70
2022-11-29T11:07:07.352Z,5.70
2022-11-29T11:09:21.030Z,5.60
2022-11-29T11:11:28.889Z,5.70
2022-11-29T11:13:34.159Z,5.70
2022-11-29T11:15:40.481Z,5.90
2022-11-29T11:17:58.068Z,5.90
2022-11-29T11:20:04.664Z,5.80
2022-11-29T11:22:20.418Z,5.80
2022-11-29T11:24:28.911Z,5.70
2022-11-29T11:26:44.362Z,5.70
2022-11-29T11:28:52.503Z,5.70
2022-11-29T11:31:01.027Z,5.70
2022-11-29T11:33:09.249Z,5.70
2022-11-29T11:35:24.215Z,5.70
2022-11-29T11:37:30.334Z,5.70
2022-11-29T11:39:34.528Z,5.70
2022-11-29T11:41:59.867Z,5.70
2022-11-29T11:44:14.997Z,5.70
2022-11-29T11:46:21.541Z,5.70
2022-11-29T11:48:26.522Z,5.70
2022-11-29T11:50:33.951Z,5.80
2022-11-29T11:52:50.048Z,5.70
2022-11-29T11:54:58.150Z,5.70
2022-11-29T11:57:02.725Z,5.70
2022-11-29T11:59:07.051Z,5.70
2022-11-29T12:01:30.401Z,5.80
2022-11-29T12:03:54.941Z,5.70
2022-11-29T12:06:08.440Z,5.70
2022-11-29T12:08:15.592Z,5.70
2022-11-29T12:10:26.170Z,5.70
2022-11-29T12:12:33.972Z,5.70
2022-11-29T12:14:47.431Z,5.70
2022-11-29T12:17:01.169Z,5.60
2022-11-29T12:19:14.566Z,5.60
2022-11-29T12:21:25.066Z,5.60
2022-11-29T12:23:38.661Z,5.60
2022-11-29T12:25:48.886Z,5.60
2022-11-29T12:27:53.297Z,5.60
2022-11-29T12:29:58.295Z,5.60
2022-11-29T12:32:21.579Z,5.60
2022-11-29T12:34:49.292Z,5.70
2022-11-29T12:37:02.278Z,5.60
2022-11-29T12:39:37.289Z,5.60
2022-11-29T12:41:53.973Z,5.60
2022-11-29T12:44:09.507Z,5.60
2022-11-29T12:46:17.146Z,5.60
2022-11-29T12:48:32.008Z,5.60
2022-11-29T12:50:46.641Z,5.60
2022-11-29T12:53:04.035Z,5.70
2022-11-29T12:55:21.467Z,5.70
2022-11-29T12:57:32.384Z,5.70
2022-11-29T12:59:51.547Z,5.60
2022-11-29T13:02:18.856Z,5.60
2022-11-29T13:04:32.905Z,5.60
2022-11-29T13:06:43.550Z,5.60
2022-11-29T13:09:03.907Z,5.60
2022-11-29T13:11:15.525Z,5.60
2022-11-29T13:13:29.892Z,5.60
2022-11-29T13:15:41.454Z,5.60
2022-11-29T13:17:53.336Z,5.50
2022-11-29T13:20:02.833Z,5.50
2022-11-29T13:22:16.360Z,5.50
2022-11-29T13:24:28.311Z,5.50
2022-11-29T13:26:34.159Z,5.50
2022-11-29T13:28:41.526Z,5.50
2022-11-29T13:30:46.423Z,5.40
2022-11-29T13:32:58.781Z,5.40
2022-11-29T13:35:09.910Z,5.40
2022-11-29T13:37:21.232Z,5.40
2022-11-29T13:39:39.191Z,5.40
2022-11-29T13:41:50.399Z,5.40
2022-11-29T13:43:59.931Z,5.40
2022-11-29T13:46:17.521Z,5.40
2022-11-29T13:48:36.212Z,5.40
2022-11-29T13:50:46.470Z,5.40
2022-11-29T13:52:51.461Z,5.40
2022-11-29T13:55:22.033Z,5.40
2022-11-29T13:57:27.423Z,5.40
2022-11-29T13:59:33.451Z,5.30
2022-11-29T14:01:52.821Z,5.30
2022-11-29T14:04:13.027Z,5.30
2022-11-29T14:06:21.376Z,5.30
2022-11-29T14:08:37.708Z,5.30
2022-11-29T14:10:55.601Z,5.30
2022-11-29T14:13:02.036Z,5.20
2022-11-29T14:15:19.487Z,5.20
2022-11-29T14:17:35.754Z,5.20
2022-11-29T14:19:40.984Z,5.20
2022-11-29T14:22:31.301Z,5.20
2022-11-29T14:24:44.716Z,5.20
2022-11-29T14:26:49.346Z,5.20
2022-11-29T14:28:57.851Z,5.20
2022-11-29T14:31:02.988Z,5.20
2022-11-29T14:33:18.507Z,5.20
2022-11-29T14:35:31.924Z,5.10
2022-11-29T14:37:48.999Z,5.10
2022-11-29T14:39:59.250Z,5.10
2022-11-29T14:42:14.823Z,5.10
2022-11-29T14:44:21.878Z,5.10
2022-11-29T14:46:29.671Z,5.10
2022-11-29T14:48:35.978Z,5.00
2022-11-29T14:50:42.207Z,5.00
2022-11-29T14:52:53.397Z,5.00
2022-11-29T14:55:03.315Z,5.00
2022-11-29T14:57:40.630Z,5.00
2022-11-29T14:59:57.318Z,5.00
2022-11-29T15:02:04.449Z,5.00
2022-11-29T15:04:11.724Z,5.00
2022-11-29T15:06:29.338Z,5.00
2022-11-29T15:08:39.335Z,5.00
2022-11-29T15:10:50.866Z,5.00
2022-11-29T15:12:55.852Z,5.00
2022-11-29T15:15:11.329Z,4.90
2022-11-29T15:17:28.788Z,4.90
2022-11-29T15:20:18.850Z,4.90
2022-11-29T15:22:26.736Z,4.90
2022-11-29T15:24:32.134Z,4.90
2022-11-29T15:26:38.284Z,4.80
2022-11-29T15:28:42.950Z,4.80
2022-11-29T15:30:50.193Z,4.80
2022-11-29T15:32:55.072Z,4.70
2022-11-29T15:35:00.045Z,4.70
2022-11-29T15:37:06.611Z,4.70
2022-11-29T15:39:28.384Z,4.70
2022-11-29T15:41:35.773Z,4.70
2022-11-29T15:43:43.721Z,4.70
2022-11-29T15:45:50.066Z,4.70
2022-11-29T15:47:55.170Z,4.70
2022-11-29T15:49:59.420Z,4.70
2022-11-29T15:52:07.772Z,4.60
2022-11-29T15:54:16.857Z,4.60
2022-11-29T15:56:26.090Z,4.60
2022-11-29T15:58:34.159Z,4.60
2022-11-29T16:00:40.371Z,4.50
2022-11-29T16:02:51.798Z,4.50
2022-11-29T16:04:59.380Z,4.50
2022-11-29T16:07:05.932Z,4.50
2022-11-29T16:09:14.031Z,4.40
2022-11-29T16:11:22.203Z,4.40
2022-11-29T16:13:38.852Z,4.40
2022-11-29T16:15:44.571Z,4.40
2022-11-29T16:17:49.147Z,4.40
2022-11-29T16:20:06.431Z,4.40
2022-11-29T16:22:17.212Z,4.40
2022-11-29T16:24:22.755Z,4.40
2022-11-29T16:26:31.732Z,4.40
2022-11-29T16:28:41.977Z,4.40
2022-11-29T16:30:48.699Z,4.40
2022-11-29T16:32:55.950Z,4.30
2022-11-29T16:35:08.339Z,4.30
2022-11-29T16:37:20.310Z,4.30
2022-11-29T16:39:27.151Z,4.30
2022-11-29T16:41:34.735Z,4.40
2022-11-29T16:43:54.178Z,4.30
2022-11-29T16:46:37.500Z,4.30
2022-11-29T16:48:46.224Z,4.30
2022-11-29T16:51:26.028Z,4.30
2022-11-29T16:53:38.544Z,4.30
2022-11-29T16:55:43.338Z,4.40
2022-11-29T16:57:50.505Z,4.30
2022-11-29T17:00:00.283Z,4.30
2022-11-29T17:02:07.881Z,4.30
2022-11-29T17:04:12.864Z,4.30
2022-11-29T17:06:32.572Z,4.30
2022-11-29T17:08:38.996Z,4.30
2022-11-29T17:10:44.045Z,4.30
2022-11-29T17:12:50.507Z,4.20
2022-11-29T17:14:56.920Z,4.30
2022-11-29T17:17:02.504Z,4.30
2022-11-29T17:19:07.773Z,4.30
2022-11-29T17:21:19.364Z,4.20
2022-11-29T17:23:25.889Z,4.30
2022-11-29T17:25:30.502Z,4.30
2022-11-29T17:27:36.904Z,4.30
2022-11-29T17:29:42.122Z,4.30
2022-11-29T17:31:47.913Z,4.20
2022-11-29T17:33:53.435Z,4.20
2022-11-29T17:35:58.116Z,4.20
2022-11-29T17:38:04.626Z,4.20
2022-11-29T17:40:15.329Z,4.30
2022-11-29T17:42:23.013Z,4.20
2022-11-29T17:44:27.237Z,4.30
2022-11-29T17:46:35.053Z,4.20
2022-11-29T17:48:40.025Z,4.20
2022-11-29T17:50:44.441Z,4.20
2022-11-29T17:52:48.756Z,4.20
2022-11-29T17:54:52.973Z,4.20
2022-11-29T17:56:58.568Z,4.20
2022-11-29T17:59:04.024Z,4.20
2022-11-29T18:01:11.077Z,4.30
2022-11-29T18:03:15.714Z,4.30
2022-11-29T18:05:19.942Z,4.30
2022-11-29T18:07:24.083Z,4.30
2022-11-29T18:09:28.283Z,4.30
2022-11-29T18:11:44.905Z,4.30
2022-11-29T18:13:53.503Z,4.30
2022-11-29T18:16:05.112Z,4.30
2022-11-29T18:18:09.353Z,4.40
2022-11-29T18:20:14.752Z,4.40
2022-11-29T18:22:18.977Z,4.40
2022-11-29T18:24:23.220Z,4.50
2022-11-29T18:26:29.599Z,4.40
2022-11-29T18:28:37.239Z,4.50
2022-11-29T18:30:43.484Z,4.50
2022-11-29T18:32:47.768Z,4.50
2022-11-29T18:34:52.086Z,4.50
2022-11-29T18:36:56.433Z,4.50
2022-11-29T18:39:02.878Z,4.50
2022-11-29T18:41:11.320Z,4.50
2022-11-29T18:43:18.352Z,4.40
2022-11-29T18:45:23.835Z,4.40
2022-11-29T18:47:33.050Z,4.40
2022-11-29T18:49:37.423Z,4.40
2022-11-29T18:51:45.034Z,4.40
2022-11-29T18:53:49.897Z,4.40
2022-11-29T18:56:01.865Z,4.40
2022-11-29T18:58:08.021Z,4.40
2022-11-29T19:00:13.482Z,4.30
2022-11-29T19:02:20.135Z,4.30
2022-11-29T19:04:25.879Z,4.40
2022-11-29T19:06:38.979Z,4.40
2022-11-29T19:08:44.675Z,4.40
2022-11-29T19:10:49.431Z,4.40
2022-11-29T19:12:53.746Z,4.40
2022-11-29T19:14:58.014Z,4.40
2022-11-29T19:17:02.344Z,4.40
2022-11-29T19:19:08.572Z,4.40
2022-11-29T19:21:16.476Z,4.40
2022-11-29T19:23:21.575Z,4.40
2022-11-29T19:25:26.252Z,4.40
2022-11-29T19:27:30.771Z,4.40
2022-11-29T19:29:39.499Z,4.40
2022-11-29T19:31:44.531Z,4.40
2022-11-29T19:33:48.881Z,4.40
2022-11-29T19:35:54.353Z,4.40
2022-11-29T19:38:00.231Z,4.40
2022-11-29T19:40:05.345Z,4.40
2022-11-29T19:42:09.625Z,4.40
2022-11-29T19:44:14.346Z,4.40
2022-11-29T19:46:20.321Z,4.40
2022-11-29T19:48:24.708Z,4.30
2022-11-29T19:50:29.563Z,4.30
2022-11-29T19:52:34.744Z,4.40
2022-11-29T19:54:40.362Z,4.40
2022-11-29T19:56:45.084Z,4.40
2022-11-29T19:58:49.290Z,4.40
2022-11-29T20:00:53.570Z,4.30
2022-11-29T20:02:57.729Z,4.30
2022-11-29T20:05:01.917Z,4.30
2022-11-29T20:07:06.463Z,4.30
2022-11-29T20:09:10.897Z,4.30
2022-11-29T20:11:18.805Z,4.30
2022-11-29T20:13:23.564Z,4.30
2022-11-29T20:15:27.926Z,4.30
2022-11-29T20:17:32.729Z,4.30
2022-11-29T20:19:36.891Z,4.30
2022-11-29T20:21:44.484Z,4.30
2022-11-29T20:23:48.669Z,4.30
2022-11-29T20:25:53.494Z,4.30
2022-11-29T20:27:59.020Z,4.30
2022-11-29T20:30:03.500Z,4.30
2022-11-29T20:32:08.164Z,4.20
2022-11-29T20:34:13.604Z,4.20
2022-11-29T20:36:34.734Z,4.20
2022-11-29T20:38:45.291Z,4.10
2022-11-29T20:41:02.498Z,4.20
2022-11-29T20:43:16.804Z,4.20
2022-11-29T20:45:21.539Z,4.20
2022-11-29T20:47:27.617Z,4.20
2022-11-29T20:49:32.340Z,4.20
2022-11-29T20:51:44.122Z,4.20
2022-11-29T20:53:49.285Z,4.20
2022-11-29T20:55:53.444Z,4.20
2022-11-29T20:57:58.251Z,4.20
2022-11-29T21:00:04.029Z,4.20
2022-11-29T21:02:08.359Z,4.20
2022-11-29T21:04:12.819Z,4.20
2022-11-29T21:06:16.981Z,4.20
2022-11-29T21:08:22.437Z,4.20
2022-11-29T21:10:26.442Z,4.20
2022-11-29T21:12:31.122Z,4.20
2022-11-29T21:14:36.012Z,4.20
2022-11-29T21:16:42.677Z,4.20
2022-11-29T21:18:49.543Z,4.20
2022-11-29T21:21:04.757Z,4.20
2022-11-29T21:23:15.765Z,4.20
2022-11-29T21:25:27.526Z,4.20
2022-11-29T21:27:34.094Z,4.20
2022-11-29T21:29:38.779Z,4.20
2022-11-29T21:31:45.416Z,4.20
2022-11-29T21:33:50.440Z,4.20
2022-11-29T21:35:58.117Z,4.20
2022-11-29T21:38:04.131Z,4.20
2022-11-29T21:40:10.808Z,4.20
2022-11-29T21:42:15.055Z,4.20
2022-11-29T21:44:20.804Z,4.20
2022-11-29T21:46:25.314Z,4.20
2022-11-29T21:48:38.027Z,4.20
2022-11-29T21:50:42.399Z,4.20
2022-11-29T21:52:46.721Z,4.20
2022-11-29T21:54:51.037Z,4.10
2022-11-29T21:56:55.416Z,4.20
2022-11-29T21:58:59.830Z,4.20
2022-11-29T22:01:10.104Z,4.20
2022-11-29T22:03:14.743Z,4.20
2022-11-29T22:05:20.433Z,4.10
2022-11-29T22:07:24.728Z,4.10
2022-11-29T22:09:29.391Z,4.20
2022-11-29T22:11:35.792Z,4.20
2022-11-29T22:14:02.205Z,4.20
2022-11-29T22:16:08.413Z,4.20
2022-11-29T22:18:12.762Z,4.20
2022-11-29T22:20:17.512Z,4.10
2022-11-29T22:22:27.100Z,4.10
2022-11-29T22:24:34.440Z,4.20
2022-11-29T22:26:39.044Z,4.10
2022-11-29T22:28:43.405Z,4.10
2022-11-29T22:30:47.869Z,4.10
2022-11-29T22:32:52.419Z,4.10
2022-11-29T22:34:56.925Z,4.20
2022-11-29T22:37:01.534Z,4.20
2022-11-29T22:39:09.139Z,4.20
2022-11-29T22:41:16.381Z,4.20
2022-11-29T22:43:20.601Z,4.20
2022-11-29T22:45:25.915Z,4.10
2022-11-29T22:47:30.186Z,4.10
2022-11-29T22:49:34.465Z,4.10
2022-11-29T22:51:40.330Z,4.10
2022-11-29T22:53:49.247Z,4.10
2022-11-29T22:55:59.217Z,4.10
2022-11-29T22:58:03.357Z,4.00
2022-11-29T23:00:09.385Z,4.00
2022-11-29T23:02:13.847Z,4.00
2022-11-29T23:04:18.116Z,4.00
2022-11-29T23:06:24.094Z,4.10
2022-11-29T23:08:30.334Z,4.10
2022-11-29T23:10:34.567Z,4.10
2022-11-29T23:12:40.326Z,4.10
2022-11-29T23:14:44.986Z,4.10
2022-11-29T23:16:49.521Z,4.00
2022-11-29T23:18:54.676Z,4.10
2022-11-29T23:21:03.860Z,4.10
2022-11-29T23:23:08.017Z,4.00
2022-11-29T23:25:12.598Z,4.10
2022-11-29T23:27:17.005Z,4.00
2022-11-29T23:29:22.930Z,4.00
2022-11-29T23:31:27.547Z,4.00
2022-11-29T23:33:31.978Z,4.00
2022-11-29T23:35:36.435Z,4.00
2022-11-29T23:37:41.463Z,4.00
2022-11-29T23:39:46.612Z,4.00
2022-11-29T23:41:50.934Z,4.00
2022-11-29T23:43:55.230Z,4.00
2022-11-29T23:46:01.484Z,4.00
2022-11-29T23:48:05.998Z,4.00
2022-11-29T23:50:11.325Z,4.00
2022-11-29T23:52:16.184Z,4.00
2022-11-29T23:54:20.411Z,4.00
2022-11-29T23:56:25.291Z,4.00
2022-11-29T23:58:30.830Z,4.00
